Ovid, Colorado
Current Conditions -  °F | °C
As of 3:35 AM on Saturday 22 Nov 2014 (Local Time) from KHEQ Reporting Station
Clear Clear  
Wind Chill: 16°   Ceiling: Unl
Heat Index: 27°   Visibility: 10mi
Dew Point: 19°   Wind: 12mph
Humidity: 74%   Direction: 230°SW
Pressure: 29.85"   Gusts: NA
Location:  40.96°N, 102.39°W
Report Text: KHEQ 221035Z AUTO 23010KT 10SM CLR M03/M07 A2985 RMK AO2
Loading
Personal Weather Stations






























Interactive Weather Map New forecast layout! Learn more

10-Day Weather Forecast

Advertisements
Track Severe Weather on mobile